Airfield :
LOGIN :

Register | Disclaimer

   EN    FR    IT 

 










Legend :    VFR   Marginal VFR   IFR   Intensive IFR   Very Intensive IFR
Visi :
Ceiling :
>= 8 km
>= 3000ft
5 to 8 km
1000 to 3000 ft
1500m to 5 km
500 to 1000 ft
800 to 1500m
200 to 500 ft
< 800m
< 200 ft
Symbols :   Thunderstorms  Fog  Heavy snow  Heavy precipitations  Wind > 20 kt
SIGMETs :     Misc.  Thunderstorms  Icing  Turbulence  Mountain Waves  Volcanic Ashes






- Airport Elevation : 204 ft
- IATA code : AGF


LFBA - Agen

CURRENT METAR :
  • 271530Z AUTO 31008KT 270V340 9999 FEW043 OVC056 19/10 Q1022 TEMPO SCT025TCU BKN030

EXPIRED METARs :
  • 271500Z AUTO 30007KT 260V340 9999 FEW042 OVC058 19/10 Q1022 TEMPO SCT025TCU BKN030
  • 271430Z AUTO 31007KT 270V340 9999 FEW039 BKN058 19/11 Q1022 TEMPO SCT025TCU BKN030
  • 271400Z AUTO 32008KT 290V360 9999 FEW038 BKN060 19/10 Q1022 TEMPO SCT025TCU BKN030
  • 271330Z AUTO 31008KT 280V340 CAVOK 19/10 Q1022 TEMPO SCT025TCU BKN030
  • 271300Z AUTO 30008KT 260V330 9999 FEW039 OVC058 18/11 Q1022 NOSIG
  • 271230Z AUTO 30007KT 270V330 9999 BKN036 BKN047 OVC058 19/11 Q1022 NOSIG
  • 271200Z AUTO 30007KT 270V350 9999 FEW032 OVC056 19/11 Q1022 NOSIG
  • 271130Z AUTO 30007KT 260V320 9999 FEW033 SCT043 OVC058 18/11 Q1022 NOSIG
  • 271100Z AUTO 30006KT 270V340 9999 FEW029 OVC058 18/11 Q1022 NOSIG

TAF TAF LFBA
Valid from the 27 at 15:00 until the 28 at 00:00 UTC


271400Z 2715/2724 29007KT 9999 SCT035 BKN060
PROB30
TEMPO 2715/2719 -SHRA SCT025TCU BKN030
BECMG 2721/2723 CAVOK



MET'MAP, your aeronautical weather chart ! - Copyright ORBIFLY December 2007 - Disclaimer

ORBIFLY MET'MAP TEAM :

Programming & Development : Alexandra Zaïnal
Original concept : Baudouin d'Aumeries
Technical & hardware support : Manuel Goepfert
Assistance : Marc-Olivier Méhu




SOURCES & CREDITS :

   NOAA